Jonathan Harvey

Olheiro - Bristol City
3 Dez 2028
Domingo
Processo

Personalidade

Adaptabilidade (7) Ambição (8) Controvérsia (18) Lealdade (2) Pressão (14) Profissionalismo (6) Espírito Esportivo (4) Temperamento (4)

Perfil

Estilo de Treinamento Democrático
Licença Continental A
Determinação 5
Gestão de Pessoas 4
Motivação 8
Disciplina 9
Satisfação no Trabalho
100%
Fadiga
0%
Função Olheiro
Salário 33.0K p/s
Contrato 14.03.2030

Desempenho

Comportamento Bom
Eficácia do Treinamento
48%
Desenvolvimento do Jogador
45%
Prevenção de Lesões
35%
Implementação Tática
65%

Eventos Recentes

Participou de uma reunião de recrutamento agora
Recomendou um alvo de transferência agora
Avaliou um jogador agora
Avaliou um jogador agora
Avaliou um jogador agora
Avaliou um jogador 7d atrás
Avaliou um jogador 7d atrás
Avaliou um jogador 7d atrás

Monitorando agora

130
Jogador Clube Status Habilidade Confiança Observado Última observação Último voto
Ben Broggio Mansfield Town Ativo 108 / 129 40% 3 02.12.2028 -
Celías Ingenthron Platense Ativo 116 / 116 40% 2 02.12.2028 -
Amin Nabizada Exeter City Ativo 122 / 113 40% 2 02.12.2028 -
Honest Ahanor Atalanta Ativo 138 / 147 40% 8 01.12.2028 -
Trey Nyoni Rotherham United Ativo 147 / 144 40% 6 01.12.2028 -
Tahiel Peralta Racing Club Ativo 109 / 113 40% 2 01.12.2028 -
Kevin Filling AIK Ativo 115 / 127 40% 1 30.11.2028 -
Nadir Sánchez Central Córdoba SdE Ativo 102 / 118 40% 1 30.11.2028 -
Shea Lacey Crystal Palace Ativo 135 / 154 40% 2 29.11.2028 -
Tyler Silsby Salford City Ativo 108 / 132 40% 1 29.11.2028 -
Sean Steur Rotherham United Ativo 139 / 126 40% 2 28.11.2028 -
Jacob Peter Hödl Sturm Graz Ativo 134 / 138 40% 1 28.11.2028 -
Lisandro Piñero Banfield Ativo 135 / 131 40% 1 28.11.2028 -
Jake Evans Crewe Alexandra Ativo 117 / 133 40% 1 26.11.2028 -
Valentino Huertas Morón Ativo 94 / 113 40% 1 26.11.2028 -
Chris Rigg West Ham United Ativo 140 / 139 40% 1 26.11.2028 -
Chimobi Igwilo Rangers International Ativo 96 / 88 40% 2 25.11.2028 -
Jan Bürger Northampton Town Ativo 129 / 124 40% 12 24.11.2028 -
Harry Gray Harrogate Town Ativo 131 / 139 40% 1 24.11.2028 -
Matías Arias Vélez Ativo 114 / 118 40% 1 24.11.2028 -
Ruben Ramos LA Galaxy Ativo 110 / 108 40% 3 23.11.2028 -
Dro Monaco Ativo 145 / 138 40% 1 23.11.2028 -
Snyder Brunell Seattle Sounders Ativo 84 / 108 40% 1 22.11.2028 -
Sunday Aniebet Enyimba Ativo 102 / 90 40% 1 22.11.2028 -
Giovanni Cantizano Fulham Ativo 124 / 132 40% 1 22.11.2028 -
Ryan Kavuma-McQueen Accrington Stanley Ativo 120 / 140 40% 1 20.11.2028 -
Ibrahim Fullah Charlton Athletic Ativo 127 / 137 40% 1 20.11.2028 -
Mateo Aguiar Tigre Ativo 126 / 126 40% 1 20.11.2028 -
André Miranda Porto Ativo 128 / 121 40% 1 17.11.2028 -
Tyson Pearce St. Louis CITY SC Ativo 102 / 92 40% 1 17.11.2028 -
Robinio Vaz Modena Ativo 125 / 125 40% 1 17.11.2028 -
Amine Boukamir Charleroi Ativo 100 / 115 40% 6 19.06.2028 -
Nicolò Moranduzzo Renate Ativo 94 / 98 40% 3 19.06.2028 -
Federico Matarán Giana Erminio Perdido 100 / 111 40% 1 01.06.2028 -
Christos Mouzakitis Hull City Ativo 139 / 145 40% 6 28.05.2028 -
Josh Nichols Oldham Athletic Ativo 120 / 134 40% 6 28.05.2028 -
Tobiáš Pališčák Zlin Ativo 94 / 122 40% 3 24.05.2028 -
Jorthy Mokio ADO Den Haag Ativo 130 / 132 40% 3 23.05.2028 -
Tyler Fletcher Rotherham United Ativo 107 / 127 40% 2 22.05.2028 -
Ronan Kpakio AC Milan Ativo 128 / 126 40% 5 21.05.2028 -
Andrey Ivlev Nizhniy Novgorod Ativo 122 / 110 40% 1 20.05.2028 -
Daniel Banjaqui Benfica Ativo 122 / 121 40% 3 19.05.2028 -
Olivier Leroux Mouscron Ativo 101 / 113 40% 3 16.05.2028 -
Kiani Inge Groningen Ativo 107 / 120 40% 5 09.05.2028 -
Ayden Heaven Portsmouth Ativo 142 / 147 40% 4 09.05.2028 -
Martim Cunha Porto Ativo 100 / 116 40% 4 07.05.2028 -
Andrea Cogoni Cosenza Ativo 109 / 119 40% 2 04.05.2028 -
Giovanni Leoni Lincoln City Ativo 141 / 155 40% 3 02.05.2028 -
Riquelme Thompson-Jones Accrington Stanley Ativo 109 / 115 40% 3 01.05.2028 -
Musa Danjuma Umraniyespor Ativo 109 / 104 40% 1 30.04.2028 -
Bernardo Lima Porto Ativo 105 / 113 40% 3 27.04.2028 -
Tobías Ramírez River Plate Ativo 118 / 141 40% 1 23.04.2028 -
Josh Acheampong Everton Ativo 134 / 157 40% 4 18.04.2028 -
Gideon Manaseh Ikorodu City Ativo 100 / 99 40% 1 18.04.2028 -
Miguel Figueiredo Benfica Ativo 119 / 131 40% 4 14.04.2028 -
Augusto Bando Ascoli Ativo 117 / 112 40% 1 14.04.2028 -
Nicolas Sport Recife Ativo 95 / 108 40% 1 12.04.2028 -
Andrea Bertoncini Triestina Ativo 94 / 100 40% 1 12.04.2028 -
Makar Vysochenko Spartak Moscow Ativo 83 / 85 40% 2 11.04.2028 -
Olivier Mambwa Young Boys Ativo 106 / 129 40% 1 06.04.2028 -
Victor Hernandez Santa Fe Ativo 107 / 118 40% 3 21.03.2028 -
Caleb Yirenkyi Coventry City Ativo 140 / 138 40% 4 26.12.2027 -
Luighi Palmeiras Ativo 118 / 126 40% 2 26.12.2027 -
Francisco Triver River Plate Ativo 98 / 83 40% 2 22.12.2027 -
Jayden Danns Bradford City Ativo 145 / 133 40% 1 22.12.2027 -
Gonçalo Moreira Benfica Ativo 117 / 126 40% 1 20.12.2027 -
Dylan Cabral Arsenal Ativo 108 / 117 40% 1 20.12.2027 -
Sindre Walle Egeli Udinese Ativo 141 / 133 40% 2 16.12.2027 -
Francisco Marchant Colo-Colo Ativo 101 / 101 40% 1 16.12.2027 -
Igor Tyjon Barrow AFC Ativo 121 / 127 40% 1 15.12.2027 -
Musa Malik Ikorodu City Ativo 95 / 99 40% 2 14.12.2027 -
Olger Escobar CF Montreal Ativo 102 / 120 40% 3 09.12.2027 -
Giovanni Baroni Talleres Ativo 115 / 113 40% 1 09.12.2027 -
Jonny Shore New York City Ativo 108 / 91 40% 2 04.12.2027 -
Babis Kostoulas Oxford United Ativo 145 / 146 40% 2 27.11.2027 -
Dániel Pintér Inter Miami CF Ativo 101 / 105 40% 1 27.11.2027 -
Andy Rojas New York Red Bulls Ativo 109 / 115 40% 1 22.11.2027 -
Gonçalo Oliveira Benfica Ativo 119 / 112 40% 3 31.05.2027 -
Godwin Oham Warri Wolves Ativo 96 / 88 40% 2 31.05.2027 -
Charlie Gray Fleetwood Town Ativo 91 / 85 40% 2 25.05.2027 -
Hosea Michael Remo Stars Ativo 88 / 102 40% 1 25.05.2027 -
Riley Owen Stevenage Ativo 107 / 117 40% 3 24.05.2027 -
Mustapha Jawad Kano Pillars Ativo 86 / 95 40% 2 24.05.2027 -
Tiago Freitas Benfica Ativo 102 / 114 40% 4 22.05.2027 -
Kazunari Kita Real Sociedad Ativo 95 / 107 40% 4 20.05.2027 -
Tommaso Cecotti Carpi Ativo 96 / 101 40% 3 20.05.2027 -
Daniel Dennis Ikorodu City Ativo 84 / 101 40% 2 12.05.2027 -
Lucas Bergvall Tottenham Ativo 153 / 142 40% 3 04.05.2027 -
Ezra Mayers West Ham United Ativo 121 / 117 40% 2 04.05.2027 -
Kamaldeen Atiemo Wa All Stars Ativo 94 / 98 40% 4 03.05.2027 -
Jenson Jones Walsall Ativo 96 / 105 40% 2 03.05.2027 -
Sascha Britschgi AC Milan Ativo 124 / 120 40% 3 27.04.2027 -
Zane Albarus Shrewsbury Town Ativo 100 / 106 40% 3 24.04.2027 -
Issa Yusuf Shooting Stars Ativo 87 / 81 40% 1 24.04.2027 -
Ahmed Akinyele Remo Stars Ativo 100 / 95 40% 1 21.04.2027 -
Konta Ismaily Ativo 85 / 83 40% 1 12.04.2027 -
David Ozoh Derby County Ativo 130 / 136 40% 2 01.04.2027 -
James Dornelly Peterborough United Ativo 107 / 106 40% 1 22.03.2027 -
Leandro Martins Benfica Ativo 92 / 92 40% 1 12.03.2027 -
Afriyie Sulemana WAFA Ativo 93 / 95 40% 1 06.03.2027 -
Bradley de Jesus Nacional Ativo 93 / 91 40% 1 03.03.2027 -
Cemran Dansin Orlando Pirates Ativo 97 / 114 40% 1 11.01.2027 -
Nikita Krivtsov Krasnodar Ativo 124 / 141 40% 1 28.12.2026 -
Harry Clarke Preston Ativo 131 / 138 40% 1 28.12.2026 -
Dennis Cirkin Queens Park Rangers Ativo 124 / 128 40% 1 28.12.2026 -
Diogo Dalot Manchester United Ativo 148 / 155 40% 1 27.12.2026 -
Nathan Collins Brentford Ativo 152 / 135 40% 1 16.12.2026 -
Aaron Hickey Brentford Ativo 147 / 151 40% 1 16.12.2026 -
Brooke Norton-Cuffy Hull City Ativo 128 / 143 40% 1 16.12.2026 -
Max Johnston Derby County Ativo 131 / 123 40% 5 15.12.2026 -
Ousmane Diomande Nottingham Forest Ativo 145 / 153 40% 1 15.12.2026 -
Alex Scott Bournemouth Ativo 152 / 160 40% 2 14.12.2026 -
Shea Charles Southampton Ativo 136 / 129 40% 1 11.12.2026 -
André Wolverhampton Ativo 143 / 137 40% 1 10.12.2026 -
Manu Morlanes Mallorca Ativo 143 / 127 40% 1 10.12.2026 -
Jacques Ekomié Wrexham Ativo 133 / 132 40% 1 07.12.2026 -
Aidan Morris Middlesbrough Ativo 133 / 130 40% 2 18.11.2026 -
Welington Southampton Ativo 138 / 130 40% 1 18.11.2026 -
Kristoffer Lund Birmingham Ativo 120 / 136 40% 1 09.11.2026 -
Japhet Sery Larsen Philadelphia Union Ativo 114 / 118 40% 1 09.11.2026 -
Alessandro Buongiorno Cagliari Ativo 153 / 149 40% 1 08.11.2026 -
Jakub Moder Burnley Ativo 135 / 148 40% 2 06.11.2026 -
Nectar Triantis Minnesota United FC Ativo 137 / 142 40% 1 06.11.2026 -
Max Bird Birmingham Ativo 126 / 122 40% 1 02.11.2026 -
Lasse Berg Johnsen Sporting Kansas City Ativo 130 / 117 40% 1 06.10.2026 -
Juan Manuel Sanabria Real Salt Lake Ativo 127 / 138 40% 1 05.10.2026 -
Jacob Greaves Ipswich Town Ativo 129 / 124 40% 1 05.10.2026 -
Jamie Reid Stevenage Ativo 115 / 117 65% 1 03.08.2026 Aprovar
Heung-Min Son Los Angeles Football Club Ativo 158 / 151 40% 1 01.08.2026 -
Guilherme Houston Dynamo Ativo 129 / 141 40% 1 01.08.2026 -